Time;durP1;ratioP1;P1;durP2;ratioP2;P2;SDS_P1;SDS_P2;PMS_P1;PMS_P2;Temp;Humidity;BMP_temperature;BMP_pressure;BME280_temperature;BME280_humidity;BME280_pressure;Samples;Min_cycle;Max_cycle;Signal;HPM_P1;HPM_P2
2023/06/29 00:00:06;;;;;;;7.15;5.38;;;;;;;;;;2015871;29;20029;-92
2023/06/29 00:01:07;;;;;;;7.20;5.63;;;;;;;;;;2015793;29;20111;-91
2023/06/29 00:02:10;;;;;;;8.48;5.63;;;;;;;;;;2008189;29;20474;-91
2023/06/29 00:03:11;;;;;;;9.43;5.80;;;;;;;;;;2008142;29;20026;-91
2023/06/29 00:04:12;;;;;;;6.72;4.93;;;;;;;;;;2015979;29;20025;-91
2023/06/29 00:05:12;;;;;;;7.80;5.60;;;;;;;;;;2026175;29;20138;-90
2023/06/29 00:06:15;;;;;;;6.80;5.15;;;;;;;;;;2027809;29;20078;-91
2023/06/29 00:07:18;;;;;;;8.20;5.43;;;;;;;;;;2025291;29;20425;-88
2023/06/29 00:08:18;;;;;;;9.82;6.15;;;;;;;;;;2025457;29;20021;-90
2023/06/29 00:09:19;;;;;;;7.55;5.65;;;;;;;;;;2024818;29;20350;-91
2023/06/29 00:10:31;;;;;;;7.35;5.40;;;;;;;;;;2024646;29;20596;-90
2023/06/29 00:11:33;;;;;;;10.50;5.65;;;;;;;;;;2024618;29;20125;-91
2023/06/29 00:12:34;;;;;;;7.45;5.63;;;;;;;;;;2024425;29;20027;-92
2023/06/29 00:13:36;;;;;;;9.45;5.72;;;;;;;;;;2024156;29;20036;-92
2023/06/29 00:14:37;;;;;;;8.27;5.10;;;;;;;;;;2023509;29;20036;-92
2023/06/29 00:15:42;;;;;;;7.82;5.88;;;;;;;;;;2023738;29;20029;-91
2023/06/29 00:16:43;;;;;;;7.15;5.70;;;;;;;;;;2018088;29;20025;-90
2023/06/29 00:17:47;;;;;;;8.65;5.75;;;;;;;;;;2019704;29;20029;-92
2023/06/29 00:18:49;;;;;;;7.28;5.57;;;;;;;;;;2024742;29;20029;-92
2023/06/29 00:19:49;;;;;;;8.50;6.20;;;;;;;;;;2017302;29;20115;-92
2023/06/29 00:20:51;;;;;;;8.73;6.00;;;;;;;;;;2017648;29;20443;-90
2023/06/29 00:21:52;;;;;;;10.20;6.20;;;;;;;;;;2017577;29;20079;-90
2023/06/29 00:22:59;;;;;;;9.65;5.93;;;;;;;;;;2013043;29;20514;-90
2023/06/29 00:24:02;;;;;;;7.70;5.47;;;;;;;;;;2020061;29;20077;-89
2023/06/29 00:25:05;;;;;;;8.77;6.15;;;;;;;;;;2027334;29;20385;-90
2023/06/29 00:26:09;;;;;;;9.27;6.18;;;;;;;;;;2017195;29;20025;-91
2023/06/29 00:27:12;;;;;;;8.55;6.00;;;;;;;;;;2017194;29;20636;-90
2023/06/29 00:28:13;;;;;;;11.10;6.78;;;;;;;;;;2025320;29;20024;-90
2023/06/29 00:29:13;;;;;;;10.35;6.40;;;;;;;;;;2025470;29;20024;-90
2023/06/29 00:30:22;;;;;;;9.05;6.40;;;;;;;;;;2024978;29;20029;-90
2023/06/29 00:31:24;;;;;;;12.93;6.78;;;;;;;;;;2025236;29;20025;-90
2023/06/29 00:32:24;;;;;;;10.57;6.25;;;;;;;;;;2016944;29;20115;-90
2023/06/29 00:33:24;;;;;;;8.73;6.85;;;;;;;;;;2016846;29;20433;-90
2023/06/29 00:34:25;;;;;;;9.07;6.38;;;;;;;;;;2025236;29;20040;-90
2023/06/29 00:35:26;;;;;;;7.97;6.35;;;;;;;;;;2025396;29;20025;-90
2023/06/29 00:36:28;;;;;;;10.00;6.80;;;;;;;;;;2025645;29;20116;-90
2023/06/29 00:37:29;;;;;;;10.75;6.25;;;;;;;;;;2025168;29;20054;-90
2023/06/29 00:38:29;;;;;;;10.50;6.65;;;;;;;;;;2025198;29;20191;-90
2023/06/29 00:39:31;;;;;;;11.13;6.80;;;;;;;;;;2017466;29;20040;-91
2023/06/29 00:40:36;;;;;;;10.35;7.20;;;;;;;;;;2017335;29;20119;-90
2023/06/29 00:41:39;;;;;;;7.80;6.55;;;;;;;;;;2013519;29;20112;-90
2023/06/29 00:42:39;;;;;;;10.23;7.07;;;;;;;;;;2025035;29;20081;-90
2023/06/29 00:43:45;;;;;;;10.73;7.20;;;;;;;;;;2024709;29;20033;-90
2023/06/29 00:44:53;;;;;;;9.05;6.82;;;;;;;;;;2032725;29;20412;-90
2023/06/29 00:45:53;;;;;;;9.18;6.50;;;;;;;;;;2033594;29;20036;-91
2023/06/29 00:46:54;;;;;;;11.02;7.53;;;;;;;;;;2040643;29;20027;-91
2023/06/29 00:47:55;;;;;;;8.88;6.45;;;;;;;;;;2041584;29;20107;-91
2023/06/29 00:49:02;;;;;;;11.38;7.30;;;;;;;;;;2032838;29;20036;-92
2023/06/29 00:50:04;;;;;;;11.02;7.55;;;;;;;;;;2025990;29;20038;-91
2023/06/29 00:51:05;;;;;;;11.10;7.38;;;;;;;;;;2032653;29;20544;-90
2023/06/29 00:52:16;;;;;;;10.77;7.18;;;;;;;;;;2032923;29;20103;-91
2023/06/29 00:53:19;;;;;;;9.82;6.88;;;;;;;;;;2040760;29;20055;-91
2023/06/29 00:54:20;;;;;;;11.93;7.85;;;;;;;;;;2040224;29;20496;-90
2023/06/29 00:55:21;;;;;;;10.85;6.88;;;;;;;;;;2032345;29;20099;-90
2023/06/29 00:56:24;;;;;;;13.30;7.18;;;;;;;;;;2032670;29;20036;-92
2023/06/29 00:57:25;;;;;;;9.52;7.43;;;;;;;;;;2041074;29;20035;-92
2023/06/29 00:58:33;;;;;;;10.40;7.30;;;;;;;;;;2041193;29;20071;-91
2023/06/29 00:59:42;;;;;;;12.38;7.35;;;;;;;;;;2043747;29;20369;-91
2023/06/29 01:00:45;;;;;;;11.50;7.50;;;;;;;;;;2032750;29;20086;-90
2023/06/29 01:01:51;;;;;;;11.05;7.65;;;;;;;;;;2033296;29;20062;-91
2023/06/29 01:02:52;;;;;;;10.57;7.72;;;;;;;;;;2043140;29;20034;-91
2023/06/29 01:03:56;;;;;;;13.45;8.52;;;;;;;;;;2041312;29;20501;-90
2023/06/29 01:04:58;;;;;;;9.77;7.50;;;;;;;;;;2034949;29;20444;-88
2023/06/29 01:06:04;;;;;;;11.55;7.78;;;;;;;;;;2033370;29;20497;-91
2023/06/29 01:07:30;;;;;;;9.68;7.20;;;;;;;;;;2033229;29;20091;-91
2023/06/29 01:08:48;;;;;;;9.68;6.60;;;;;;;;;;2032745;29;20028;-91
2023/06/29 01:09:51;;;;;;;11.45;7.72;;;;;;;;;;2037481;29;20119;-91
2023/06/29 01:10:53;;;;;;;13.20;7.75;;;;;;;;;;2032533;29;20035;-91
2023/06/29 01:11:56;;;;;;;8.52;6.90;;;;;;;;;;2033122;29;20036;-91
2023/06/29 01:12:59;;;;;;;9.93;7.40;;;;;;;;;;2040437;29;20429;-90
2023/06/29 01:14:02;;;;;;;11.95;7.20;;;;;;;;;;2040416;29;20394;-91
2023/06/29 01:15:04;;;;;;;9.82;6.90;;;;;;;;;;2041227;29;20034;-90
2023/06/29 01:16:05;;;;;;;9.32;6.65;;;;;;;;;;2032468;29;20047;-90
2023/06/29 01:17:11;;;;;;;9.15;7.03;;;;;;;;;;2032450;29;20031;-90
2023/06/29 01:18:15;;;;;;;29.67;9.10;;;;;;;;;;2032471;29;20155;-91
2023/06/29 01:19:23;;;;;;;10.88;7.47;;;;;;;;;;2032489;29;20437;-90
2023/06/29 01:20:26;;;;;;;11.65;7.63;;;;;;;;;;2033263;29;20394;-90
2023/06/29 01:21:32;;;;;;;12.50;7.57;;;;;;;;;;2040393;29;20027;-90
2023/06/29 01:22:56;;;;;;;10.73;7.57;;;;;;;;;;2032427;29;20032;-90
2023/06/29 01:24:18;;;;;;;10.75;7.35;;;;;;;;;;2035811;29;20027;-90
2023/06/29 01:25:21;;;;;;;;;;;;;;;;;;2041288;29;20502;-91
2023/06/29 01:26:24;;;;;;;10.13;6.70;;;;;;;;;;2041065;29;19915;-91
2023/06/29 01:27:25;;;;;;;8.82;7.07;;;;;;;;;;2032316;29;20134;-90
2023/06/29 01:28:28;;;;;;;12.73;7.90;;;;;;;;;;2024615;29;20119;-91
2023/06/29 01:29:32;;;;;;;11.02;6.80;;;;;;;;;;2032355;29;20024;-91
2023/06/29 01:30:35;;;;;;;9.25;6.80;;;;;;;;;;2024529;29;20087;-91
2023/06/29 01:31:36;;;;;;;10.25;7.22;;;;;;;;;;2032289;29;20020;-90
2023/06/29 01:32:37;;;;;;;10.85;7.50;;;;;;;;;;2032561;29;20472;-91
2023/06/29 01:33:37;;;;;;;11.02;7.75;;;;;;;;;;2032682;29;20034;-89
2023/06/29 01:34:38;;;;;;;11.63;7.20;;;;;;;;;;2032474;29;20024;-90
2023/06/29 01:35:39;;;;;;;9.35;7.05;;;;;;;;;;2032144;29;20024;-90
2023/06/29 01:36:45;;;;;;;9.30;6.82;;;;;;;;;;2032461;29;20111;-91
2023/06/29 01:38:10;;;;;;;9.15;6.60;;;;;;;;;;2040366;29;20032;-91
2023/06/29 01:39:23;;;;;;;9.50;6.22;;;;;;;;;;2026747;29;20039;-91
2023/06/29 01:40:29;;;;;;;12.40;7.00;;;;;;;;;;2026182;29;20095;-91
2023/06/29 01:41:35;;;;;;;11.40;7.65;;;;;;;;;;2032865;29;20027;-90
2023/06/29 01:42:38;;;;;;;11.02;6.22;;;;;;;;;;2032417;29;20058;-91
2023/06/29 01:43:41;;;;;;;9.35;6.72;;;;;;;;;;2026895;29;20147;-90
2023/06/29 01:44:51;;;;;;;12.60;7.32;;;;;;;;;;2042757;29;20032;-91
2023/06/29 01:45:54;;;;;;;8.43;5.78;;;;;;;;;;2042823;29;20054;-91
2023/06/29 01:46:57;;;;;;;10.52;6.50;;;;;;;;;;2042891;29;20060;-91
2023/06/29 01:48:00;;;;;;;10.48;6.22;;;;;;;;;;2050882;29;20050;-91
2023/06/29 01:49:04;;;;;;;9.35;6.05;;;;;;;;;;2048724;29;20020;-92
2023/06/29 01:50:10;;;;;;;10.30;5.80;;;;;;;;;;2042071;29;20466;-90
2023/06/29 01:51:11;;;;;;;8.52;5.95;;;;;;;;;;2034156;29;20115;-91
2023/06/29 01:52:15;;;;;;;10.77;6.10;;;;;;;;;;2026509;29;20406;-91
2023/06/29 01:53:15;;;;;;;8.63;6.03;;;;;;;;;;2026066;29;20115;-91
2023/06/29 01:54:16;;;;;;;6.93;5.38;;;;;;;;;;2032271;29;20039;-92
2023/06/29 01:55:16;;;;;;;8.00;5.80;;;;;;;;;;2032291;29;20052;-91
2023/06/29 01:56:17;;;;;;;10.20;5.45;;;;;;;;;;2032701;29;20024;-91
2023/06/29 01:57:17;;;;;;;9.35;5.40;;;;;;;;;;2032242;29;20039;-92
2023/06/29 01:58:27;;;;;;;7.97;5.70;;;;;;;;;;2032203;29;20424;-91
2023/06/29 01:59:30;;;;;;;7.78;5.35;;;;;;;;;;2032034;29;20024;-92
2023/06/29 02:00:30;;;;;;;10.18;5.68;;;;;;;;;;2032328;29;20028;-92
2023/06/29 02:01:38;;;;;;;8.57;5.30;;;;;;;;;;2032231;29;20417;-91
2023/06/29 02:02:39;;;;;;;9.48;5.45;;;;;;;;;;2032058;29;20028;-92
2023/06/29 02:03:40;;;;;;;11.23;5.28;;;;;;;;;;2032243;29;20032;-91
2023/06/29 02:04:40;;;;;;;8.60;5.35;;;;;;;;;;2031848;29;20076;-91
2023/06/29 02:05:41;;;;;;;7.07;5.28;;;;;;;;;;2032298;29;20032;-92
2023/06/29 02:06:46;;;;;;;9.10;5.43;;;;;;;;;;2032579;29;20048;-92
2023/06/29 02:07:46;;;;;;;8.43;5.53;;;;;;;;;;2040206;29;20058;-92
2023/06/29 02:08:48;;;;;;;11.57;5.68;;;;;;;;;;2039792;29;20102;-92
2023/06/29 02:09:50;;;;;;;5.40;4.65;;;;;;;;;;2032032;29;20084;-92
2023/06/29 02:10:56;;;;;;;10.65;5.38;;;;;;;;;;2032635;29;20020;-91
2023/06/29 02:11:59;;;;;;;8.02;4.88;;;;;;;;;;2040740;29;20419;-91
2023/06/29 02:13:00;;;;;;;9.25;5.47;;;;;;;;;;2040416;29;20408;-91
2023/06/29 02:14:03;;;;;;;7.95;5.72;;;;;;;;;;2032337;29;20028;-94
2023/06/29 02:15:03;;;;;;;9.90;5.80;;;;;;;;;;2024477;29;20032;-91
2023/06/29 02:16:06;;;;;;;8.27;5.65;;;;;;;;;;2032246;29;20027;-91
2023/06/29 02:17:17;;;;;;;9.93;5.95;;;;;;;;;;2040505;29;20027;-92
2023/06/29 02:34:43;;;;;;;6.60;4.97;;;;;;;;;;2050766;29;20141;-96
2023/06/29 02:35:49;;;;;;;8.57;5.10;;;;;;;;;;2051269;29;20039;-96
2023/06/29 02:36:54;;;;;;;6.97;4.25;;;;;;;;;;2041940;29;20506;-96
2023/06/29 02:37:59;;;;;;;8.75;4.35;;;;;;;;;;2035476;29;20055;-95
2023/06/29 02:38:59;;;;;;;8.90;4.82;;;;;;;;;;2039174;29;20512;-95
2023/06/29 02:40:05;;;;;;;7.30;4.85;;;;;;;;;;2041374;29;20024;-96
2023/06/29 02:41:24;;;;;;;;;;;;;;;;;;;;;
2023/06/29 02:43:41;;;;;;;6.25;4.40;;;;;;;;;;2060790;28;20129;-96
2023/06/29 02:44:50;;;;;;;6.75;4.43;;;;;;;;;;2051509;29;20038;-94
2023/06/29 02:45:53;;;;;;;7.30;4.65;;;;;;;;;;2056392;28;20034;-95
2023/06/29 02:46:56;;;;;;;6.20;4.28;;;;;;;;;;2055475;29;20027;-96
2023/06/29 02:47:57;;;;;;;6.28;4.38;;;;;;;;;;2050775;29;20099;-95
2023/06/29 02:48:59;;;;;;;5.75;4.15;;;;;;;;;;2052779;28;20044;-96
2023/06/29 02:50:00;;;;;;;6.65;4.75;;;;;;;;;;2053903;29;20031;-96
2023/06/29 03:14:22;;;;;;;7.20;4.95;;;;;;;;;;940827;23;20336;-91
2023/06/29 03:15:29;;;;;;;6.43;4.22;;;;;;;;;;2053988;28;20517;-91
2023/06/29 03:16:30;;;;;;;5.22;4.10;;;;;;;;;;2047836;28;20023;-91
2023/06/29 03:17:30;;;;;;;4.68;4.07;;;;;;;;;;2054880;28;20107;-90
2023/06/29 03:18:31;;;;;;;5.30;4.18;;;;;;;;;;2054765;28;20483;-90
2023/06/29 03:19:31;;;;;;;8.20;4.28;;;;;;;;;;2055211;28;20034;-89
2023/06/29 03:20:31;;;;;;;5.65;4.47;;;;;;;;;;2055202;28;20061;-90
2023/06/29 03:21:32;;;;;;;5.10;4.13;;;;;;;;;;2055589;28;20027;-91
2023/06/29 03:22:33;;;;;;;6.13;5.13;;;;;;;;;;2055157;28;20030;-91
2023/06/29 03:23:33;;;;;;;8.52;4.53;;;;;;;;;;2055611;28;20031;-91
2023/06/29 03:24:36;;;;;;;5.55;4.47;;;;;;;;;;2054621;28;20193;-91
2023/06/29 03:25:37;;;;;;;6.47;4.53;;;;;;;;;;2054904;28;20058;-92
2023/06/29 03:26:40;;;;;;;7.50;4.82;;;;;;;;;;2047136;29;20537;-92
2023/06/29 03:27:46;;;;;;;7.68;4.35;;;;;;;;;;2056031;28;20058;-92
2023/06/29 03:28:46;;;;;;;8.50;4.40;;;;;;;;;;2058462;28;20046;-91
2023/06/29 03:29:55;;;;;;;6.57;3.95;;;;;;;;;;2056074;28;20059;-92
2023/06/29 03:30:56;;;;;;;4.82;4.20;;;;;;;;;;2054857;28;20475;-90
2023/06/29 03:31:59;;;;;;;5.15;4.05;;;;;;;;;;2055065;28;20031;-91
2023/06/29 03:33:01;;;;;;;5.25;3.83;;;;;;;;;;2056147;28;20031;-91
2023/06/29 03:34:04;;;;;;;7.30;3.80;;;;;;;;;;2056112;28;20030;-90
2023/06/29 03:35:14;;;;;;;;;;;;;;;;;;;;;
2023/06/29 03:36:31;;;;;;;4.57;3.80;;;;;;;;;;2057386;28;20022;-90
2023/06/29 03:37:37;;;;;;;6.65;4.35;;;;;;;;;;2057366;28;20014;-91
2023/06/29 03:38:37;;;;;;;6.78;4.38;;;;;;;;;;2048006;28;20035;-93
2023/06/29 03:39:40;;;;;;;7.68;4.57;;;;;;;;;;2047235;29;20027;-91
2023/06/29 03:40:43;;;;;;;6.07;4.30;;;;;;;;;;2054881;28;20030;-90
2023/06/29 03:41:43;;;;;;;6.78;4.57;;;;;;;;;;2055477;28;20578;-90
2023/06/29 03:42:44;;;;;;;5.93;4.05;;;;;;;;;;2055872;28;20049;-91
2023/06/29 03:43:51;;;;;;;5.80;3.85;;;;;;;;;;2055752;28;20046;-90
2023/06/29 03:44:52;;;;;;;7.05;3.72;;;;;;;;;;2056185;28;20042;-91
2023/06/29 03:45:53;;;;;;;6.82;4.22;;;;;;;;;;2054862;28;20150;-90
2023/06/29 03:46:55;;;;;;;6.85;3.90;;;;;;;;;;2046992;29;20066;-90
2023/06/29 03:47:56;;;;;;;5.90;4.32;;;;;;;;;;2047345;28;20050;-89
2023/06/29 03:48:56;;;;;;;6.35;3.58;;;;;;;;;;2046919;29;20053;-91
2023/06/29 03:49:57;;;;;;;6.38;4.63;;;;;;;;;;2054844;28;20035;-90
2023/06/29 03:50:58;;;;;;;8.00;4.45;;;;;;;;;;2055447;28;20062;-90
2023/06/29 03:51:58;;;;;;;5.45;4.50;;;;;;;;;;2054680;28;20101;-90
2023/06/29 03:53:01;;;;;;;4.88;4.05;;;;;;;;;;2054723;28;20019;-89
2023/06/29 03:54:04;;;;;;;6.97;4.10;;;;;;;;;;2055654;28;20037;-89
2023/06/29 03:55:05;;;;;;;9.65;4.43;;;;;;;;;;2054655;28;20034;-90
2023/06/29 03:56:06;;;;;;;5.18;3.90;;;;;;;;;;2046740;29;20074;-90
2023/06/29 03:57:06;;;;;;;6.90;4.14;;;;;;;;;;1706138;28;10172686;-89
2023/06/29 03:58:07;;;;;;;5.32;3.80;;;;;;;;;;2055421;28;20545;-90
2023/06/29 03:59:07;;;;;;;7.47;4.05;;;;;;;;;;2055408;28;20089;-90
2023/06/29 04:00:08;;;;;;;6.22;4.40;;;;;;;;;;2054445;28;20522;-90
2023/06/29 04:01:09;;;;;;;5.57;4.18;;;;;;;;;;1703145;28;10002677;-89
2023/06/29 04:02:09;;;;;;;6.50;4.22;;;;;;;;;;2054606;28;20567;-90
2023/06/29 04:03:10;;;;;;;6.22;4.35;;;;;;;;;;2054158;28;20535;-89
2023/06/29 04:04:11;;;;;;;5.10;3.72;;;;;;;;;;2054402;28;20023;-91
2023/06/29 04:05:11;;;;;;;5.75;3.72;;;;;;;;;;2054645;28;20092;-90
2023/06/29 04:06:12;;;;;;;7.20;4.32;;;;;;;;;;2054736;28;20115;-90
2023/06/29 04:07:13;;;;;;;6.05;3.85;;;;;;;;;;2055047;28;20137;-91
2023/06/29 04:08:13;;;;;;;8.52;4.10;;;;;;;;;;2054781;28;20071;-90
2023/06/29 04:09:14;;;;;;;6.03;4.20;;;;;;;;;;2055213;28;20034;-89
2023/06/29 04:10:17;;;;;;;5.32;4.00;;;;;;;;;;2054938;28;20054;-91
2023/06/29 04:11:17;;;;;;;5.18;4.15;;;;;;;;;;2053726;28;20035;-91
2023/06/29 04:12:18;;;;;;;5.50;4.00;;;;;;;;;;2064791;28;20041;-91
2023/06/29 04:13:18;;;;;;;9.45;4.05;;;;;;;;;;2065742;28;20054;-90
2023/06/29 04:14:19;;;;;;;6.53;4.63;;;;;;;;;;2062392;28;20055;-91
2023/06/29 04:15:19;;;;;;;5.63;4.15;;;;;;;;;;2052335;29;20090;-90
2023/06/29 04:16:19;;;;;;;4.95;4.03;;;;;;;;;;2060463;28;20023;-91
2023/06/29 04:17:20;;;;;;;6.13;3.55;;;;;;;;;;2057171;28;20367;-90
2023/06/29 04:18:20;;;;;;;5.07;3.97;;;;;;;;;;2055395;28;20110;-91
2023/06/29 04:19:21;;;;;;;6.38;4.15;;;;;;;;;;2046538;29;20507;-91
2023/06/29 04:20:24;;;;;;;5.22;4.30;;;;;;;;;;2054982;28;20069;-90
2023/06/29 04:21:27;;;;;;;7.70;4.10;;;;;;;;;;2055602;28;20030;-90
2023/06/29 04:22:30;;;;;;;4.95;3.67;;;;;;;;;;2054662;28;20049;-91
2023/06/29 04:23:31;;;;;;;5.60;3.83;;;;;;;;;;2054891;28;20035;-90
2023/06/29 04:24:34;;;;;;;5.18;3.85;;;;;;;;;;2054854;28;20065;-91
2023/06/29 04:25:35;;;;;;;5.10;3.65;;;;;;;;;;2054803;28;20027;-91
2023/06/29 04:26:38;;;;;;;6.25;3.90;;;;;;;;;;2055442;28;20058;-91
2023/06/29 04:27:39;;;;;;;7.82;4.10;;;;;;;;;;2054407;28;20128;-91
2023/06/29 04:28:44;;;;;;;5.30;3.60;;;;;;;;;;2046902;29;20033;-90
2023/06/29 04:29:44;;;;;;;4.40;3.58;;;;;;;;;;2057576;28;20106;-90
2023/06/29 04:30:49;;;;;;;5.10;3.85;;;;;;;;;;2054592;28;20166;-90
2023/06/29 04:31:50;;;;;;;5.72;4.07;;;;;;;;;;2055236;28;20388;-89
2023/06/29 04:32:56;;;;;;;4.00;3.30;;;;;;;;;;2054810;28;20565;-91
2023/06/29 04:33:58;;;;;;;6.20;3.63;;;;;;;;;;2055490;28;20035;-89
2023/06/29 04:35:01;;;;;;;6.50;3.63;;;;;;;;;;2047184;28;20028;-91
2023/06/29 04:36:02;;;;;;;5.32;3.80;;;;;;;;;;2055133;28;20530;-92
2023/06/29 04:37:03;;;;;;;5.13;4.10;;;;;;;;;;2054618;28;20308;-93
2023/06/29 04:38:04;;;;;;;4.53;3.83;;;;;;;;;;2054989;28;20099;-90
2023/06/29 04:39:05;;;;;;;5.50;3.90;;;;;;;;;;2055246;28;20031;-93
2023/06/29 04:40:16;;;;;;;;;;;;;;;;;;;;;
2023/06/29 04:41:17;;;;;;;6.45;3.97;;;;;;;;;;2055575;28;20418;-92
2023/06/29 04:42:18;;;;;;;5.18;3.78;;;;;;;;;;2055341;28;20046;-90
2023/06/29 04:43:21;;;;;;;7.40;3.65;;;;;;;;;;2054634;28;20019;-90
2023/06/29 04:44:26;;;;;;;5.80;3.72;;;;;;;;;;2046793;28;20043;-91
2023/06/29 04:45:28;;;;;;;5.50;3.90;;;;;;;;;;2054849;28;20101;-91
2023/06/29 04:46:29;;;;;;;5.20;3.55;;;;;;;;;;2055160;28;20026;-90
2023/06/29 04:47:32;;;;;;;4.15;3.10;;;;;;;;;;2055285;28;20022;-91
2023/06/29 04:48:38;;;;;;;4.35;3.30;;;;;;;;;;2054059;28;20167;-89
2023/06/29 04:49:44;;;;;;;4.80;3.28;;;;;;;;;;2046755;28;20045;-90
2023/06/29 04:50:49;;;;;;;5.30;3.65;;;;;;;;;;2057307;28;20030;-89
2023/06/29 04:51:50;;;;;;;4.15;3.15;;;;;;;;;;2055658;28;20106;-89
2023/06/29 04:52:53;;;;;;;3.60;3.25;;;;;;;;;;2054784;28;20041;-90
2023/06/29 04:53:54;;;;;;;6.82;4.03;;;;;;;;;;2046644;28;20093;-89
2023/06/29 04:54:54;;;;;;;4.93;3.42;;;;;;;;;;2046559;29;20157;-90
2023/06/29 04:55:58;;;;;;;5.97;3.58;;;;;;;;;;2054488;28;20455;-91
2023/06/29 04:57:00;;;;;;;5.38;3.35;;;;;;;;;;2055210;28;20090;-91
2023/06/29 04:58:03;;;;;;;4.53;3.38;;;;;;;;;;2055377;28;20031;-91
2023/06/29 04:59:03;;;;;;;5.00;3.47;;;;;;;;;;2054767;28;20362;-90
2023/06/29 05:00:07;;;;;;;3.83;2.95;;;;;;;;;;2054133;28;20023;-91
2023/06/29 05:01:08;;;;;;;4.75;3.45;;;;;;;;;;2054260;28;20467;-91
2023/06/29 05:02:11;;;;;;;4.65;3.53;;;;;;;;;;2054195;28;20122;-90
2023/06/29 05:03:14;;;;;;;5.93;3.60;;;;;;;;;;2054532;28;20337;-90
2023/06/29 05:04:16;;;;;;;6.20;3.47;;;;;;;;;;2057986;28;20050;-91
2023/06/29 05:05:17;;;;;;;4.43;3.45;;;;;;;;;;2055802;28;20050;-91
2023/06/29 05:06:17;;;;;;;5.72;3.63;;;;;;;;;;2056250;28;20030;-91
2023/06/29 05:07:20;;;;;;;4.28;3.33;;;;;;;;;;2056694;28;20136;-91
2023/06/29 05:08:24;;;;;;;4.63;3.35;;;;;;;;;;2056777;28;20142;-90
2023/06/29 05:09:24;;;;;;;5.18;3.53;;;;;;;;;;2055960;28;20026;-89
2023/06/29 05:10:25;;;;;;;5.45;3.88;;;;;;;;;;2056835;28;20027;-91
2023/06/29 05:11:25;;;;;;;4.00;3.60;;;;;;;;;;2055808;28;20101;-93
2023/06/29 05:12:26;;;;;;;7.20;3.40;;;;;;;;;;2055938;28;20023;-91
2023/06/29 05:13:27;;;;;;;5.82;3.65;;;;;;;;;;2055547;28;20062;-90
2023/06/29 05:14:30;;;;;;;6.15;3.97;;;;;;;;;;2055609;28;20117;-91
2023/06/29 05:15:30;;;;;;;4.53;3.40;;;;;;;;;;2055221;28;20094;-91
2023/06/29 05:16:33;;;;;;;4.10;3.25;;;;;;;;;;2055727;28;20046;-90
2023/06/29 05:17:36;;;;;;;7.32;3.25;;;;;;;;;;2055863;28;20038;-92
2023/06/29 05:18:42;;;;;;;4.18;2.95;;;;;;;;;;2055772;28;20538;-91
2023/06/29 05:19:42;;;;;;;3.85;3.28;;;;;;;;;;2049903;28;20638;-91
2023/06/29 05:20:46;;;;;;;4.72;3.08;;;;;;;;;;2056238;28;20022;-91
2023/06/29 05:21:46;;;;;;;6.53;3.22;;;;;;;;;;2055958;28;20129;-90
2023/06/29 05:22:47;;;;;;;4.55;2.80;;;;;;;;;;2056302;28;20023;-91
2023/06/29 05:23:52;;;;;;;3.83;3.08;;;;;;;;;;2056080;28;20027;-91
2023/06/29 05:24:52;;;;;;;3.85;3.15;;;;;;;;;;2048436;28;20027;-91
2023/06/29 05:25:53;;;;;;;5.25;3.05;;;;;;;;;;2047765;29;20020;-90
2023/06/29 05:26:54;;;;;;;4.03;3.28;;;;;;;;;;2047839;29;20511;-91
2023/06/29 05:27:55;;;;;;;6.40;3.85;;;;;;;;;;2056046;28;20054;-90
2023/06/29 05:29:00;;;;;;;4.03;3.15;;;;;;;;;;2055610;28;20027;-91
2023/06/29 05:30:09;;;;;;;5.43;3.20;;;;;;;;;;2055887;28;20422;-91
2023/06/29 05:31:11;;;;;;;4.22;3.55;;;;;;;;;;2056784;28;20027;-91
2023/06/29 05:32:12;;;;;;;5.15;3.35;;;;;;;;;;2055036;28;20023;-90
2023/06/29 05:33:15;;;;;;;6.38;3.45;;;;;;;;;;2055591;28;20541;-90
2023/06/29 05:34:20;;;;;;;5.25;3.05;;;;;;;;;;2055653;28;20242;-90
2023/06/29 05:35:31;;;;;;;5.80;3.13;;;;;;;;;;2056445;28;20175;-90
2023/06/29 05:36:42;;;;;;;3.22;2.92;;;;;;;;;;2055607;28;20022;-91
2023/06/29 05:37:45;;;;;;;3.45;2.60;;;;;;;;;;2058801;28;20058;-91
2023/06/29 05:38:54;;;;;;;4.78;3.17;;;;;;;;;;2056155;28;20151;-91
2023/06/29 05:40:02;;;;;;;3.85;2.72;;;;;;;;;;2056392;28;20031;-91
2023/06/29 05:41:02;;;;;;;7.82;2.85;;;;;;;;;;2055747;28;20018;-91
2023/06/29 05:42:03;;;;;;;5.07;2.90;;;;;;;;;;2055490;28;20014;-91
2023/06/29 05:43:03;;;;;;;4.22;3.10;;;;;;;;;;2055705;28;20453;-92
2023/06/29 05:44:39;;;;;;;4.18;3.10;;;;;;;;;;2055423;28;20046;-90
2023/06/29 05:45:40;;;;;;;5.72;3.40;;;;;;;;;;2043571;28;20051;-90
2023/06/29 05:46:43;;;;;;;11.10;4.03;;;;;;;;;;2057185;28;20026;-90
2023/06/29 05:47:43;;;;;;;4.63;3.30;;;;;;;;;;2056262;28;20107;-91
2023/06/29 05:48:48;;;;;;;4.75;3.20;;;;;;;;;;2055672;28;20499;-91
2023/06/29 05:50:04;;;;;;;;;;;;;;;;;;;;;
2023/06/29 05:51:09;;;;;;;4.05;3.47;;;;;;;;;;2056750;28;20018;-88
2023/06/29 05:52:09;;;;;;;3.33;3.03;;;;;;;;;;2058236;28;20063;-90
2023/06/29 05:53:17;;;;;;;6.82;3.83;;;;;;;;;;2056533;28;20471;-88
2023/06/29 05:54:23;;;;;;;5.10;3.83;;;;;;;;;;2055790;28;20015;-91
2023/06/29 05:55:24;;;;;;;5.15;3.22;;;;;;;;;;2055677;28;20022;-91
2023/06/29 05:56:24;;;;;;;4.75;3.90;;;;;;;;;;2063387;28;20434;-88
2023/06/29 05:57:24;;;;;;;5.38;3.40;;;;;;;;;;2063648;28;20027;-89
2023/06/29 05:58:25;;;;;;;4.63;3.15;;;;;;;;;;2056051;28;20054;-89
2023/06/29 05:59:29;;;;;;;7.55;3.83;;;;;;;;;;2056069;28;20031;-90
2023/06/29 06:00:38;;;;;;;3.53;2.85;;;;;;;;;;2055127;28;20070;-90
2023/06/29 06:01:39;;;;;;;4.78;3.25;;;;;;;;;;2055793;28;20130;-91
2023/06/29 06:05:01;;;;;;;5.20;3.22;;;;;;;;;;2039504;29;20069;-91
2023/06/29 06:06:10;;;;;;;3.90;3.23;;;;;;;;;;2047075;29;20039;-90
2023/06/29 06:07:19;;;;;;;5.22;3.42;;;;;;;;;;2038961;29;20045;-89
2023/06/29 06:08:20;;;;;;;4.82;3.78;;;;;;;;;;2039233;29;20024;-90
2023/06/29 06:09:23;;;;;;;5.57;3.67;;;;;;;;;;2054449;28;20070;-90
2023/06/29 06:10:29;;;;;;;5.30;3.10;;;;;;;;;;2055795;28;20578;-91
2023/06/29 06:12:10;;;;;;;5.53;3.25;;;;;;;;;;2047848;28;20042;-91
2023/06/29 06:13:12;;;;;;;6.65;3.20;;;;;;;;;;2049791;28;20046;-90
2023/06/29 06:14:13;;;;;;;5.72;3.40;;;;;;;;;;2047309;28;20035;-90
2023/06/29 06:15:14;;;;;;;6.85;3.55;;;;;;;;;;2055282;28;20119;-90
2023/06/29 06:16:45;;;;;;;4.68;3.90;;;;;;;;;;2055299;28;20034;-91
2023/06/29 06:17:48;;;;;;;4.93;3.15;;;;;;;;;;2050841;28;20037;-89
2023/06/29 06:18:52;;;;;;;4.93;3.60;;;;;;;;;;1705236;28;10001376;-90
2023/06/29 06:19:54;;;;;;;3.03;2.72;;;;;;;;;;2047493;28;20154;-90
2023/06/29 06:20:54;;;;;;;6.15;3.10;;;;;;;;;;2055289;28;20034;-90
2023/06/29 06:21:57;;;;;;;3.40;3.10;;;;;;;;;;2055194;28;20182;-90
2023/06/29 06:22:58;;;;;;;10.23;4.22;;;;;;;;;;2055236;28;20079;-91
2023/06/29 06:24:38;;;;;;;5.55;3.15;;;;;;;;;;2055022;28;20031;-91
2023/06/29 06:25:39;;;;;;;4.30;3.40;;;;;;;;;;2020168;29;20350;-90
2023/06/29 06:26:39;;;;;;;6.00;3.10;;;;;;;;;;1306698;29;10000343;-90
2023/06/29 06:27:41;;;;;;;4.65;3.22;;;;;;;;;;2021209;29;20055;-90
2023/06/29 06:28:41;;;;;;;6.35;3.92;;;;;;;;;;2048175;28;20134;-90
2023/06/29 06:29:45;;;;;;;6.35;3.03;;;;;;;;;;2055922;28;20066;-90
2023/06/29 06:30:53;;;;;;;5.35;3.00;;;;;;;;;;2056300;28;20060;-90
2023/06/29 06:31:54;;;;;;;4.60;3.05;;;;;;;;;;2055233;28;22074;-90
2023/06/29 06:32:55;;;;;;;4.55;3.10;;;;;;;;;;2050808;28;20031;-90
2023/06/29 06:33:57;;;;;;;7.57;3.15;;;;;;;;;;2050716;28;20922;-91
2023/06/29 06:35:16;;;;;;;5.50;3.03;;;;;;;;;;2054491;28;20035;-92
2023/06/29 06:36:17;;;;;;;4.57;3.58;;;;;;;;;;2056731;28;20030;-92
2023/06/29 06:37:18;;;;;;;4.40;2.67;;;;;;;;;;2056091;28;20031;-92
2023/06/29 06:38:18;;;;;;;3.28;2.63;;;;;;;;;;2064161;28;20082;-90
2023/06/29 06:40:31;;;;;;;5.47;2.70;;;;;;;;;;2107788;23;19931;-90
2023/06/29 06:41:34;;;;;;;4.85;2.85;;;;;;;;;;2046715;29;20043;-90
2023/06/29 06:42:37;;;;;;;7.10;3.33;;;;;;;;;;2041396;29;20032;-92
2023/06/29 06:43:37;;;;;;;6.15;3.80;;;;;;;;;;2040773;29;20047;-91
2023/06/29 06:45:14;;;;;;;3.72;2.67;;;;;;;;;;2039566;29;20046;-92
2023/06/29 06:46:14;;;;;;;3.53;2.45;;;;;;;;;;2030731;29;20035;-91
2023/06/29 06:47:15;;;;;;;3.38;2.38;;;;;;;;;;2023054;29;20517;-90
2023/06/29 06:48:15;;;;;;;3.85;2.50;;;;;;;;;;2023276;29;20033;-92
2023/06/29 06:49:16;;;;;;;3.33;2.38;;;;;;;;;;2031146;29;20080;-92
2023/06/29 06:50:16;;;;;;;4.32;2.55;;;;;;;;;;2030880;29;20129;-93
2023/06/29 06:51:17;;;;;;;4.82;2.47;;;;;;;;;;2039451;29;20547;-92
2023/06/29 06:52:17;;;;;;;5.25;2.50;;;;;;;;;;2031644;29;20028;-92
2023/06/29 06:53:21;;;;;;;7.40;2.60;;;;;;;;;;2031791;29;20024;-92
2023/06/29 06:54:21;;;;;;;4.60;2.90;;;;;;;;;;2039386;29;20420;-92
2023/06/29 06:55:22;;;;;;;4.10;2.60;;;;;;;;;;2030931;29;20036;-91
2023/06/29 06:56:22;;;;;;;3.30;2.30;;;;;;;;;;2031098;29;20036;-92
2023/06/29 06:57:23;;;;;;;3.78;2.50;;;;;;;;;;2039503;29;20118;-92
2023/06/29 06:58:26;;;;;;;2.47;2.20;;;;;;;;;;2039601;29;20078;-92
2023/06/29 06:59:26;;;;;;;3.28;2.40;;;;;;;;;;2039714;29;20087;-91
2023/06/29 07:04:44;;;;;;;3.53;2.40;;;;;;;;;;2016753;29;20537;-91
2023/06/29 07:05:47;;;;;;;3.67;2.60;;;;;;;;;;2030901;29;20075;-92
2023/06/29 07:06:53;;;;;;;4.10;2.38;;;;;;;;;;2023210;29;20036;-91
2023/06/29 07:07:54;;;;;;;3.85;2.38;;;;;;;;;;2031372;29;20037;-92
2023/06/29 07:08:58;;;;;;;3.33;2.47;;;;;;;;;;2030737;29;20027;-93
2023/06/29 07:12:25;;;;;;;5.10;3.00;;;;;;;;;;2030502;29;20123;-92